Lilly, PA (15938)

03:42 AM EST del 22 Febbraio 2017 (GMT -0500)
Brookside, Beaverdale | | Change Station

Alt. 1923 ft 40.32 °N, 78.70 °W | Updated 12 seconds ago

Coperto
Coperto
42.1 °F
Sembra 42 °F
N
2.7
Vento Variabile Vento da Est

Oggi
Massima -- | Minima -- °F
--% Possibilità di precip.
Ieri
Massima -- | Minima -- °F
Precip. -- in
Pressione 29.97 in
Visibilità 10.0 miglia
Nuvole Coperto 11000 ft
Raffreddamento del vento 42 °F
Punto di rugiada 35 °F
Umidità 76%
Piovosità 0.00 in
Spessore del manto nevoso Non disponibile.
6:58 AM 5:58 PM
Luna calante, 19% visible
METAR KJST 220754Z AUTO 23005KT 10SM OVC110 09/02 A2996 RMK AO2 SLP148 T00940017
Pressione 29.97 in
Visibilità 10.0 miglia
Nuvole Coperto 11000 ft
Raffreddamento del vento 42 °F
Punto di rugiada 35 °F
Umidità 76%
Piovosità 0.00 in
Spessore del manto nevoso Non disponibile.
6:58 AM 5:58 PM
Luna calante, 19% visible
METAR KJST 220754Z AUTO 23005KT 10SM OVC110 09/02 A2996 RMK AO2 SLP148 T00940017

Get Your Daily Forecast Email!

Thanks for signing up!

Be on the lookout for a verification email in your inbox.

You'll start receiving the daily forecast at 8 AM.

×

10-Day Weather Forecast

Almanac

Astronomia

Feb. 22, 2017 Alba Tramonto
Ora attuale
Crepuscolo civile
Crepuscolo nautico
Crepuscolo astronomico
Luna
Estensione della luce visibile
Lunghezza del giorno
Tomorrow will be .
, % of the Moon is Illuminated

Gli estremi di oggi

State Highs State Lows

Community

WunderPhotos

Upload Photos

1,962,540 foto caricate!

WunderBlog® & News

Nearby

Qualità dell'aria

  Qualità dell'aria Indice AQ Inquinante
Not available.

Profondità neve

Stazione Profondità Altitudine

Attività sismica

Città  Distanza Mag. Data & Ora
Minimo Magnitudo Mostrato è 2.5.

Temperature delle acque costiere

Località Temperatura

Stations

Stazioni meteo nelle vicinanze

Ubicazione della stazione Temp. Raffreddamento del vento Punto di rugiada Umidità Vento Precip. Alt. Aggiornato Tipo
                   

Watches & Warnings

There are currently no watches in effect.